Time;durP1;ratioP1;P1;durP2;ratioP2;P2;SDS_P1;SDS_P2;PMS_P1;PMS_P2;Temp;Humidity;BMP_temperature;BMP_pressure;BME280_temperature;BME280_humidity;BME280_pressure;Samples;Min_cycle;Max_cycle;Signal;HPM_P1;HPM_P2
2023/06/08 00:02:25;;;;;;;27.58;13.68;;;20.50;99.90;;;;;;6252390;22;20414;-94
2023/06/08 00:04:53;;;;;;;29.00;12.40;;;20.50;99.90;;;;;;6252063;22;20011;-95
2023/06/08 00:07:24;;;;;;;27.83;13.00;;;20.40;99.90;;;;;;6252302;22;20003;-95
2023/06/08 00:09:51;;;;;;;26.85;13.68;;;20.40;99.90;;;;;;6251730;22;20090;-93
2023/06/08 00:12:21;;;;;;;29.17;14.20;;;20.40;99.90;;;;;;6251990;22;20032;-92
2023/06/08 00:14:48;;;;;;;30.58;13.57;;;20.40;99.90;;;;;;6251767;22;20060;-92
2023/06/08 00:17:15;;;;;;;28.17;15.15;;;20.30;99.90;;;;;;6251657;22;20448;-94
2023/06/08 00:19:45;;;;;;;34.35;13.93;;;20.30;99.90;;;;;;6251954;22;20425;-93
2023/06/08 00:22:13;;;;;;;32.45;14.23;;;20.30;99.90;;;;;;6252447;22;20413;-93
2023/06/08 00:24:40;;;;;;;39.22;13.90;;;20.30;99.90;;;;;;6251713;22;20042;-94
2023/06/08 00:27:09;;;;;;;27.98;14.27;;;20.30;99.90;;;;;;6251501;22;20007;-93
2023/06/08 00:29:37;;;;;;;28.20;14.00;;;20.30;99.90;;;;;;6251908;22;20337;-92
2023/06/08 00:32:04;;;;;;;29.88;14.50;;;20.30;99.90;;;;;;6251730;22;20011;-94
2023/06/08 00:34:31;;;;;;;26.45;14.48;;;20.30;99.90;;;;;;6252001;22;20007;-93
2023/06/08 00:36:58;;;;;;;29.60;13.82;;;20.30;99.90;;;;;;6251380;22;20016;-92
2023/06/08 00:39:28;;;;;;;26.38;14.45;;;20.30;99.90;;;;;;6251603;22;20061;-92
2023/06/08 00:41:55;;;;;;;31.33;14.18;;;20.30;99.90;;;;;;6251888;22;20004;-92
2023/06/08 00:44:22;;;;;;;30.77;13.90;;;20.30;99.90;;;;;;6251606;22;20035;-94
2023/06/08 00:46:49;;;;;;;25.63;14.27;;;20.30;99.90;;;;;;6251277;22;20016;-93
2023/06/08 00:49:18;;;;;;;26.90;13.73;;;20.20;99.90;;;;;;6251987;22;20004;-92
2023/06/08 00:51:46;;;;;;;27.83;13.75;;;20.30;99.90;;;;;;6251751;22;20086;-91
2023/06/08 00:54:15;;;;;;;26.02;14.02;;;20.20;99.90;;;;;;6251166;22;20007;-92
2023/06/08 00:56:48;;;;;;;25.55;13.02;;;20.30;99.90;;;;;;6277324;22;20004;-93
2023/06/08 00:59:15;;;;;;;26.58;13.07;;;20.30;99.90;;;;;;6252359;22;20008;-92
2023/06/08 01:01:44;;;;;;;25.88;12.90;;;20.20;99.90;;;;;;6252823;22;20083;-93
2023/06/08 01:04:14;;;;;;;24.23;11.55;;;20.30;99.90;;;;;;6254447;22;20449;-91
2023/06/08 01:06:48;;;;;;;22.30;11.88;;;20.30;99.90;;;;;;6263052;22;20042;-94
2023/06/08 01:09:40;;;;;;;26.33;11.43;;;20.20;99.90;;;;;;6253662;22;20012;-93
2023/06/08 01:12:23;;;;;;;23.50;11.07;;;20.30;99.90;;;;;;6251672;22;20082;-92
2023/06/08 01:15:05;;;;;;;19.60;10.43;;;20.20;99.90;;;;;;6252223;22;20043;-92
2023/06/08 01:17:40;;;;;;;23.98;10.93;;;20.20;99.90;;;;;;6253362;22;20465;-92
2023/06/08 01:20:15;;;;;;;25.40;11.20;;;20.20;99.90;;;;;;6252024;22;20014;-93
2023/06/08 01:23:09;;;;;;;24.30;10.75;;;20.20;99.90;;;;;;6251482;22;20058;-93
2023/06/08 01:25:39;;;;;;;18.20;10.63;;;20.20;99.90;;;;;;6251426;22;20425;-92
2023/06/08 01:28:13;;;;;;;20.42;10.77;;;20.20;99.90;;;;;;6251081;22;20012;-91
2023/06/08 01:30:41;;;;;;;16.30;10.05;;;20.10;99.90;;;;;;6251285;22;20004;-92
2023/06/08 01:33:10;;;;;;;17.42;9.40;;;20.10;99.90;;;;;;6251418;22;20003;-93
2023/06/08 01:35:37;;;;;;;23.38;10.55;;;20.10;99.90;;;;;;6276687;22;20007;-93
2023/06/08 01:38:15;;;;;;;23.52;9.55;;;20.10;99.90;;;;;;6251203;22;20040;-93
2023/06/08 01:40:47;;;;;;;18.33;10.00;;;20.10;99.90;;;;;;6279643;22;20003;-92
2023/06/08 01:43:14;;;;;;;15.35;8.93;;;20.10;99.90;;;;;;6253314;22;20019;-93
2023/06/08 01:45:46;;;;;;;19.40;10.27;;;20.10;99.90;;;;;;6253270;22;20008;-92
2023/06/08 01:48:14;;;;;;;16.90;9.20;;;20.00;99.90;;;;;;6252829;22;20012;-94
2023/06/08 01:50:44;;;;;;;14.20;8.48;;;20.10;99.90;;;;;;6253465;22;20042;-92
2023/06/08 01:53:11;;;;;;;16.55;9.13;;;20.10;99.90;;;;;;6253247;22;20193;-92
2023/06/08 01:55:38;;;;;;;18.23;8.75;;;20.10;99.90;;;;;;6278041;22;20327;-93
2023/06/08 01:58:06;;;;;;;18.95;8.80;;;20.00;99.90;;;;;;6252981;22;20473;-93
2023/06/08 02:00:33;;;;;;;21.02;8.45;;;20.00;99.90;;;;;;6253684;22;20022;-92
2023/06/08 02:03:01;;;;;;;17.23;8.85;;;20.00;99.90;;;;;;6253231;22;20445;-93
2023/06/08 02:05:27;;;;;;;17.02;8.50;;;20.00;99.90;;;;;;6252833;22;20460;-92
2023/06/08 02:07:55;;;;;;;18.33;8.85;;;20.00;99.90;;;;;;6254322;22;20019;-93
2023/06/08 02:10:23;;;;;;;14.40;7.53;;;20.00;99.90;;;;;;6252943;22;20062;-94
2023/06/08 02:12:49;;;;;;;19.73;8.25;;;20.00;99.90;;;;;;6252819;22;20088;-93
2023/06/08 02:15:16;;;;;;;15.77;8.25;;;19.90;99.90;;;;;;6252685;22;20087;-94
2023/06/08 02:17:44;;;;;;;12.38;8.15;;;20.00;99.90;;;;;;6252994;22;20353;-92
2023/06/08 02:20:11;;;;;;;14.05;8.27;;;19.90;99.90;;;;;;6253342;22;20498;-93
2023/06/08 02:22:40;;;;;;;22.67;8.48;;;20.00;99.90;;;;;;6253295;22;20008;-95
2023/06/08 02:25:11;;;;;;;12.23;8.18;;;20.00;99.90;;;;;;6252710;22;20004;-93
2023/06/08 02:27:39;;;;;;;16.67;8.20;;;20.00;99.90;;;;;;6253150;22;20008;-92
2023/06/08 02:30:08;;;;;;;15.88;7.28;;;20.00;99.90;;;;;;6252905;22;20054;-92
2023/06/08 02:32:41;;;;;;;13.13;7.07;;;20.00;99.90;;;;;;6252552;22;20007;-93
2023/06/08 02:35:19;;;;;;;11.73;7.78;;;19.90;99.90;;;;;;6252976;22;20008;-92
2023/06/08 02:37:50;;;;;;;17.48;8.18;;;20.00;99.90;;;;;;6252331;22;20016;-93
2023/06/08 02:40:17;;;;;;;17.30;7.35;;;19.90;99.90;;;;;;6252589;22;20012;-91
2023/06/08 02:42:44;;;;;;;16.33;7.47;;;20.00;99.90;;;;;;6253085;22;20004;-92
2023/06/08 02:45:15;;;;;;;13.43;7.70;;;20.00;99.90;;;;;;6252540;22;20018;-94
2023/06/08 02:47:42;;;;;;;14.27;7.95;;;20.00;99.90;;;;;;6191501;23;20004;-91
2023/06/08 02:50:08;;;;;;;18.42;8.20;;;20.00;99.90;;;;;;6190850;23;20004;-92
2023/06/08 02:52:35;;;;;;;15.95;8.10;;;20.00;99.90;;;;;;6191189;23;20005;-92
2023/06/08 02:55:01;;;;;;;12.57;7.80;;;20.00;99.90;;;;;;6191200;23;20020;-92
2023/06/08 02:57:28;;;;;;;16.70;9.00;;;20.00;99.90;;;;;;6191056;23;20021;-93
2023/06/08 03:00:00;;;;;;;12.40;8.23;;;20.00;99.90;;;;;;6191218;23;20004;-92
2023/06/08 03:02:32;;;;;;;16.38;8.27;;;20.00;99.90;;;;;;6191886;23;20542;-94
2023/06/08 03:05:02;;;;;;;14.35;8.00;;;20.00;99.90;;;;;;6191142;23;20088;-93
2023/06/08 03:07:36;;;;;;;12.50;8.23;;;20.00;99.90;;;;;;6191058;23;20008;-93
2023/06/08 03:10:06;;;;;;;13.60;7.32;;;20.00;99.90;;;;;;6191520;23;20012;-94
2023/06/08 03:12:39;;;;;;;14.23;7.95;;;20.00;99.90;;;;;;6191241;23;20004;-93
2023/06/08 03:15:06;;;;;;;11.70;7.50;;;20.00;99.90;;;;;;6191463;23;20059;-91
2023/06/08 03:17:34;;;;;;;16.30;7.35;;;20.00;99.90;;;;;;6190873;23;20255;-91
2023/06/08 03:20:05;;;;;;;12.68;7.55;;;19.90;99.90;;;;;;6192456;23;20449;-92
2023/06/08 03:22:36;;;;;;;16.63;8.53;;;20.00;99.90;;;;;;6195680;23;20005;-93
2023/06/08 03:25:07;;;;;;;15.73;7.50;;;20.00;99.90;;;;;;6228178;22;20234;-93
2023/06/08 03:27:36;;;;;;;14.20;7.65;;;20.00;99.90;;;;;;6253193;22;20417;-92
2023/06/08 03:30:10;;;;;;;16.38;8.00;;;20.00;99.90;;;;;;6251983;22;20007;-91
2023/06/08 03:32:48;;;;;;;14.50;7.80;;;20.00;99.90;;;;;;6252034;22;20012;-92
2023/06/08 03:35:19;;;;;;;12.43;7.75;;;20.00;99.90;;;;;;6252147;22;20012;-92
2023/06/08 03:37:49;;;;;;;12.15;7.32;;;20.00;99.90;;;;;;6251891;22;20023;-91
2023/06/08 03:40:16;;;;;;;11.70;7.40;;;20.00;99.90;;;;;;6251905;22;20027;-92
2023/06/08 03:42:43;;;;;;;11.73;6.88;;;20.00;99.90;;;;;;6252157;22;20034;-94
2023/06/08 03:45:12;;;;;;;16.90;6.97;;;20.00;99.90;;;;;;6251991;22;20020;-91
2023/06/08 03:47:40;;;;;;;17.63;6.85;;;20.00;99.90;;;;;;6252244;22;20015;-92
2023/06/08 03:50:14;;;;;;;10.88;6.40;;;20.00;99.90;;;;;;6277741;22;20004;-93
2023/06/08 03:52:40;;;;;;;9.05;5.85;;;20.10;99.90;;;;;;6251773;22;20033;-91
2023/06/08 03:55:08;;;;;;;12.43;6.63;;;20.00;99.90;;;;;;6251861;22;20019;-92
2023/06/08 03:57:35;;;;;;;13.70;7.43;;;20.10;99.90;;;;;;6251937;22;20015;-90
2023/06/08 04:00:06;;;;;;;14.57;7.38;;;20.10;99.90;;;;;;6251655;22;20061;-92
2023/06/08 04:02:41;;;;;;;15.20;6.43;;;20.10;99.90;;;;;;6277004;22;20106;-92
2023/06/08 04:05:15;;;;;;;9.85;6.60;;;20.20;99.90;;;;;;6250431;22;20320;-92
2023/06/08 04:07:42;;;;;;;9.57;6.03;;;20.20;99.90;;;;;;6251502;22;20008;-93
2023/06/08 04:10:10;;;;;;;11.30;7.10;;;20.20;99.90;;;;;;6251562;22;19999;-93
2023/06/08 04:12:36;;;;;;;18.77;7.85;;;20.20;99.90;;;;;;6251410;22;20012;-91
2023/06/08 04:15:03;;;;;;;14.18;7.28;;;20.20;99.90;;;;;;6251455;22;20000;-93
2023/06/08 04:17:32;;;;;;;16.73;7.32;;;20.20;99.90;;;;;;6251211;22;20026;-92
2023/06/08 04:19:58;;;;;;;13.23;6.85;;;20.30;99.90;;;;;;6251295;22;20008;-93
2023/06/08 04:22:27;;;;;;;12.45;6.80;;;20.30;99.90;;;;;;6251117;22;20427;-91
2023/06/08 04:24:56;;;;;;;11.20;6.20;;;20.40;99.90;;;;;;6251683;22;20445;-92
2023/06/08 04:27:24;;;;;;;11.80;7.15;;;20.40;99.90;;;;;;6251556;22;20004;-94
2023/06/08 04:29:52;;;;;;;12.07;7.25;;;20.50;99.90;;;;;;6251471;22;20095;-92
2023/06/08 04:32:20;;;;;;;11.27;7.20;;;20.50;99.90;;;;;;6251345;22;20004;-95
2023/06/08 04:34:47;;;;;;;12.52;6.38;;;20.60;99.90;;;;;;6250955;22;20008;-94
2023/06/08 04:37:15;;;;;;;9.80;6.32;;;20.70;99.90;;;;;;6250917;22;20015;-93
2023/06/08 04:39:43;;;;;;;14.13;7.20;;;20.70;99.90;;;;;;6251483;22;20008;-93
2023/06/08 04:42:10;;;;;;;10.73;6.88;;;20.80;99.90;;;;;;6251737;22;20003;-93
2023/06/08 04:44:38;;;;;;;11.60;6.75;;;20.80;99.90;;;;;;6252180;22;20460;-95
2023/06/08 04:47:07;;;;;;;13.07;6.65;;;20.90;99.90;;;;;;6251257;22;20083;-93
2023/06/08 04:49:36;;;;;;;14.95;7.72;;;21.00;99.90;;;;;;6226164;22;20000;-93
2023/06/08 04:52:08;;;;;;;9.80;7.07;;;21.20;99.90;;;;;;6251079;22;20008;-92
2023/06/08 04:54:36;;;;;;;14.32;7.60;;;21.40;99.90;;;;;;6250915;22;20011;-92
2023/06/08 04:57:09;;;;;;;11.85;7.38;;;21.50;99.90;;;;;;6252158;22;20023;-94
2023/06/08 04:59:37;;;;;;;10.27;7.38;;;21.70;99.90;;;;;;6276764;22;20014;-92
2023/06/08 05:02:05;;;;;;;12.95;8.52;;;22.10;99.90;;;;;;6276790;22;20440;-94
2023/06/08 05:04:31;;;;;;;11.90;8.07;;;22.50;99.90;;;;;;6251285;22;20012;-91
2023/06/08 05:06:58;;;;;;;10.32;8.50;;;22.60;99.90;;;;;;6276855;22;20023;-95
2023/06/08 05:09:25;;;;;;;11.77;8.45;;;22.70;99.90;;;;;;6276658;22;20009;-93
2023/06/08 05:11:51;;;;;;;10.57;8.80;;;22.60;99.90;;;;;;6277590;22;20008;-93
2023/06/08 05:14:18;;;;;;;12.85;10.80;;;23.40;99.90;;;;;;6277008;22;20337;-93
2023/06/08 05:16:44;;;;;;;15.43;13.95;;;24.50;99.90;;;;;;6250910;22;20441;-92
2023/06/08 05:19:13;;;;;;;18.10;16.60;;;25.40;99.90;;;;;;6251144;22;20087;-93
2023/06/08 05:21:41;;;;;;;17.73;16.05;;;26.60;99.90;;;;;;6251083;22;20007;-93
2023/06/08 05:24:08;;;;;;;16.13;14.82;;;27.90;99.90;;;;;;6252679;22;20323;-93
2023/06/08 05:26:35;;;;;;;18.10;16.48;;;28.40;99.90;;;;;;6253308;22;20008;-93
2023/06/08 05:29:01;;;;;;;18.00;16.60;;;28.70;99.90;;;;;;6251492;22;20035;-93
2023/06/08 05:31:28;;;;;;;18.88;17.08;;;29.00;99.90;;;;;;6276737;22;20444;-93
2023/06/08 05:33:55;;;;;;;18.38;17.08;;;29.10;99.90;;;;;;6251384;22;20008;-92
2023/06/08 05:36:21;;;;;;;19.63;18.02;;;29.80;99.90;;;;;;6251503;22;20004;-92
2023/06/08 05:38:47;;;;;;;20.10;18.40;;;29.80;99.90;;;;;;6251827;22;20054;-93
2023/06/08 05:41:14;;;;;;;19.30;17.85;;;29.50;99.90;;;;;;6253432;22;20000;-93
2023/06/08 05:43:42;;;;;;;19.63;18.00;;;29.30;99.90;;;;;;6252120;22;20353;-95
2023/06/08 05:46:15;;;;;;;19.65;18.00;;;28.50;99.90;;;;;;6250989;22;20011;-94
2023/06/08 05:48:41;;;;;;;19.30;17.75;;;28.60;99.90;;;;;;6251119;22;20428;-92
2023/06/08 05:51:08;;;;;;;20.08;18.50;;;28.20;99.90;;;;;;6250670;22;20011;-91
2023/06/08 05:53:36;;;;;;;18.83;17.45;;;28.10;99.90;;;;;;6250747;22;20012;-90
2023/06/08 05:56:03;;;;;;;18.42;17.08;;;27.00;99.90;;;;;;6251089;22;20019;-92
2023/06/08 05:58:29;;;;;;;18.42;16.83;;;27.10;99.90;;;;;;6251131;22;20437;-94
2023/06/08 06:00:58;;;;;;;19.13;17.67;;;26.90;99.90;;;;;;6250928;22;20003;-92
2023/06/08 06:03:26;;;;;;;17.17;15.93;;;26.40;99.90;;;;;;6250734;22;20008;-92
2023/06/08 06:05:53;;;;;;;17.80;16.23;;;26.40;99.90;;;;;;6250877;22;20030;-93
2023/06/08 06:08:19;;;;;;;18.65;17.25;;;26.40;99.90;;;;;;6272136;22;20437;-93
2023/06/08 06:10:46;;;;;;;17.05;15.55;;;26.20;99.90;;;;;;6250730;22;20004;-93
2023/06/08 06:13:12;;;;;;;15.77;14.75;;;25.50;99.90;;;;;;6276491;22;20008;-92
2023/06/08 06:15:39;;;;;;;15.52;14.23;;;24.90;99.90;;;;;;6250584;22;20011;-94
2023/06/08 06:18:06;;;;;;;15.43;14.25;;;24.70;99.90;;;;;;6275941;22;20015;-93
2023/06/08 06:20:32;;;;;;;16.83;15.73;;;25.70;99.90;;;;;;6250435;22;20036;-94
2023/06/08 06:22:59;;;;;;;18.38;16.92;;;27.10;99.90;;;;;;6250905;22;20008;-94
2023/06/08 06:25:33;;;;;;;18.40;17.33;;;27.50;99.90;;;;;;6251630;22;20128;-94
2023/06/08 06:28:00;;;;;;;19.60;18.00;;;27.80;99.90;;;;;;6253312;22;20012;-93
2023/06/08 06:30:26;;;;;;;19.17;17.88;;;27.20;99.90;;;;;;6278644;22;20038;-92
2023/06/08 06:32:53;;;;;;;19.40;18.08;;;26.90;99.90;;;;;;6277815;22;20012;-92
2023/06/08 06:35:19;;;;;;;19.63;18.23;;;26.20;99.90;;;;;;6277828;22;20079;-94
2023/06/08 06:37:46;;;;;;;18.70;17.50;;;26.20;99.90;;;;;;6277733;22;20070;-93
2023/06/08 06:40:13;;;;;;;17.85;16.60;;;26.10;99.90;;;;;;6278071;22;20035;-93
2023/06/08 06:42:43;;;;;;;18.67;17.33;;;26.20;99.90;;;;;;6278502;22;20004;-93
2023/06/08 06:46:19;;;;;;;;;;;;;;;;;;;;;
2023/06/08 06:48:46;;;;;;;19.40;18.10;;;26.80;99.90;;;;;;6156615;23;20514;-94
2023/06/08 06:51:30;;;;;;;19.20;17.98;;;26.60;99.90;;;;;;6107611;23;20005;-93
2023/06/08 06:54:11;;;;;;;19.13;17.88;;;26.50;99.90;;;;;;6131856;23;20101;-93
2023/06/08 06:56:38;;;;;;;19.05;17.70;;;26.30;99.90;;;;;;6102309;23;20405;-92
2023/06/08 06:59:05;;;;;;;18.88;17.63;;;26.30;99.90;;;;;;6101813;23;20029;-93
2023/06/08 07:01:35;;;;;;;19.20;17.73;;;26.20;99.90;;;;;;6126859;23;20010;-92
2023/06/08 07:04:04;;;;;;;17.75;16.45;;;26.10;99.90;;;;;;6102504;23;20449;-92
2023/06/08 07:06:34;;;;;;;18.30;17.00;;;26.90;99.90;;;;;;6080320;23;20010;-94
2023/06/08 07:09:00;;;;;;;19.30;18.10;;;28.10;99.90;;;;;;6079033;23;20013;-93
2023/06/08 07:11:27;;;;;;;20.50;19.10;;;29.30;99.90;;;;;;6102113;23;20037;-93
2023/06/08 07:13:53;;;;;;;21.33;19.50;;;29.80;99.90;;;;;;6101997;23;20034;-92
2023/06/08 07:16:29;;;;;;;20.58;18.95;;;29.70;99.90;;;;;;6101954;23;20433;-92
2023/06/08 07:18:56;;;;;;;20.25;18.73;;;29.10;99.90;;;;;;6101974;23;20045;-91
2023/06/08 07:21:23;;;;;;;19.85;18.33;;;28.10;99.90;;;;;;6126938;23;20160;-92
2023/06/08 07:23:51;;;;;;;19.85;18.50;;;27.60;99.90;;;;;;6126833;23;20061;-94
2023/06/08 07:26:17;;;;;;;19.60;18.40;;;27.60;99.90;;;;;;6181758;23;20005;-93
2023/06/08 10:28:32;;;;;;;21.73;20.42;;;29.10;99.90;;;;;;6258867;22;20037;-90
2023/06/08 10:31:22;;;;;;;21.63;20.13;;;29.30;99.90;;;;;;6277483;22;20426;-92
2023/06/08 10:33:52;;;;;;;21.92;20.45;;;29.00;99.90;;;;;;6284022;22;20064;-90
2023/06/08 10:36:21;;;;;;;22.20;20.90;;;28.70;99.90;;;;;;6288443;22;20009;-95
2023/06/08 10:38:54;;;;;;;22.33;20.85;;;28.40;99.90;;;;;;6291730;22;20453;-93
2023/06/08 10:41:44;;;;;;;22.02;20.73;;;28.80;99.90;;;;;;6317684;22;20003;-90
2023/06/08 10:44:57;;;;;;;22.45;20.75;;;29.20;99.90;;;;;;6309660;22;20479;-91
2023/06/08 10:47:48;;;;;;;21.98;20.40;;;29.40;99.90;;;;;;6305026;22;20004;-93
2023/06/08 11:01:51;;;;;;;21.05;19.75;;;28.20;99.90;;;;;;6196663;22;20031;-90
2023/06/08 11:04:18;;;;;;;21.60;20.13;;;28.90;99.90;;;;;;6288460;22;20007;-91
2023/06/08 11:06:45;;;;;;;22.92;21.25;;;29.10;99.90;;;;;;6288087;22;20462;-91
2023/06/08 11:09:12;;;;;;;21.17;19.77;;;29.20;99.90;;;;;;6287557;22;20007;-93
2023/06/08 11:11:50;;;;;;;21.45;20.15;;;28.70;99.90;;;;;;6288191;22;19999;-92
2023/06/08 11:14:21;;;;;;;22.75;21.10;;;28.70;99.90;;;;;;6313928;22;20014;-92
2023/06/08 11:16:53;;;;;;;22.13;20.73;;;28.80;99.90;;;;;;6314219;22;20007;-93
2023/06/08 11:19:20;;;;;;;22.13;20.83;;;29.20;99.90;;;;;;6314222;22;20014;-92
2023/06/08 11:21:56;;;;;;;21.90;20.70;;;29.50;99.90;;;;;;6288451;22;20026;-92
2023/06/08 11:24:28;;;;;;;21.65;20.30;;;29.90;99.90;;;;;;6290845;22;20122;-91
2023/06/08 11:27:01;;;;;;;21.70;20.30;;;29.30;99.90;;;;;;6288931;22;20006;-91
2023/06/08 11:29:28;;;;;;;;;;;29.20;99.90;;;;;;6283481;22;20471;-92
2023/06/08 11:31:55;;;;;;;21.02;19.83;;;28.90;99.90;;;;;;6257679;22;19906;-91
2023/06/08 11:34:22;;;;;;;20.90;19.60;;;28.30;99.90;;;;;;6308859;22;20003;-91
2023/06/08 11:36:49;;;;;;;21.38;19.92;;;28.30;99.90;;;;;;6285202;22;20067;-92
2023/06/08 11:39:16;;;;;;;21.65;20.17;;;28.30;99.90;;;;;;6308414;22;20015;-91
2023/06/08 11:41:46;;;;;;;20.77;19.40;;;28.20;99.90;;;;;;6308126;22;20003;-93
2023/06/08 11:44:14;;;;;;;21.40;20.10;;;28.40;99.90;;;;;;6309849;22;20011;-92
2023/06/08 11:47:16;;;;;;;;;;;;;;;;;;;;;
2023/06/08 11:50:07;;;;;;;21.60;20.10;;;28.60;99.90;;;;;;6178558;23;20002;-93
2023/06/08 11:52:34;;;;;;;21.45;20.05;;;29.10;99.90;;;;;;6151793;23;20016;-93
2023/06/08 11:55:05;;;;;;;21.33;19.92;;;29.10;99.90;;;;;;6132367;23;20459;-92
2023/06/08 11:57:47;;;;;;;21.20;19.90;;;29.10;99.90;;;;;;6131595;23;20025;-91
2023/06/08 12:00:15;;;;;;;20.63;19.23;;;28.70;99.90;;;;;;6131166;23;20010;-93
2023/06/08 12:02:46;;;;;;;21.42;19.88;;;28.70;99.90;;;;;;6155497;23;20088;-93
2023/06/08 12:05:25;;;;;;;21.55;20.25;;;28.70;99.90;;;;;;6130865;23;20092;-93
2023/06/08 12:08:03;;;;;;;22.00;20.50;;;28.50;99.90;;;;;;6132654;23;20002;-92
2023/06/08 12:10:40;;;;;;;21.85;20.27;;;28.60;99.90;;;;;;6130918;23;20009;-92
2023/06/08 12:13:08;;;;;;;21.98;20.58;;;29.10;99.90;;;;;;6130892;23;20005;-95
2023/06/08 12:15:46;;;;;;;22.50;20.90;;;29.20;99.90;;;;;;6155467;23;20017;-91
2023/06/08 12:18:17;;;;;;;21.88;20.50;;;29.10;99.90;;;;;;6130882;23;20052;-91
2023/06/08 12:20:46;;;;;;;21.00;19.80;;;29.20;99.90;;;;;;6131284;23;20181;-94
2023/06/08 12:23:14;;;;;;;21.83;20.52;;;29.10;99.90;;;;;;6105841;23;20105;-89
2023/06/08 12:25:41;;;;;;;21.40;20.00;;;29.00;99.90;;;;;;6130759;23;20005;-91
2023/06/08 12:28:22;;;;;;;21.90;20.40;;;28.60;99.90;;;;;;6247113;22;20003;-92
2023/06/08 12:30:49;;;;;;;21.40;20.10;;;28.50;99.90;;;;;;6307620;22;20098;-92
2023/06/08 12:33:20;;;;;;;20.92;19.63;;;28.70;99.90;;;;;;6307900;22;20006;-92
2023/06/08 12:35:49;;;;;;;21.15;20.00;;;28.80;99.90;;;;;;6282184;22;20004;-91
2023/06/08 12:38:17;;;;;;;22.05;20.75;;;28.90;99.90;;;;;;6308017;22;20436;-92
2023/06/08 12:40:52;;;;;;;22.33;20.50;;;29.00;99.90;;;;;;6306064;22;20007;-91
2023/06/08 12:43:20;;;;;;;22.23;20.85;;;29.20;99.90;;;;;;6281841;22;20011;-91
2023/06/08 12:45:47;;;;;;;22.00;20.70;;;29.00;99.90;;;;;;6307691;22;20329;-90
2023/06/08 12:48:14;;;;;;;21.67;20.35;;;28.70;99.90;;;;;;6307526;22;20015;-91
2023/06/08 12:50:40;;;;;;;21.58;20.27;;;28.90;99.90;;;;;;6307727;22;20034;-91
2023/06/08 12:53:07;;;;;;;21.75;20.45;;;29.10;99.90;;;;;;6282096;22;20061;-89
2023/06/08 12:55:33;;;;;;;22.00;20.70;;;28.90;99.90;;;;;;6307989;22;20006;-90
2023/06/08 12:58:00;;;;;;;21.75;20.50;;;28.80;99.90;;;;;;6307806;22;20102;-94
2023/06/08 13:00:27;;;;;;;21.58;20.27;;;28.80;99.90;;;;;;6281943;22;20010;-90
2023/06/08 13:02:53;;;;;;;22.20;20.83;;;28.90;99.90;;;;;;6308518;22;20452;-89
2023/06/08 13:05:20;;;;;;;22.38;20.85;;;28.90;99.90;;;;;;6307685;22;20003;-93
2023/06/08 13:07:50;;;;;;;21.98;20.60;;;28.90;99.90;;;;;;6281792;22;19999;-93
2023/06/08 13:10:17;;;;;;;21.90;20.60;;;29.20;99.90;;;;;;6307336;22;20002;-91
2023/06/08 13:12:43;;;;;;;21.45;20.10;;;28.90;99.90;;;;;;6281834;22;20014;-90
2023/06/08 13:15:10;;;;;;;21.38;20.08;;;28.50;99.90;;;;;;6307147;22;20011;-93
2023/06/08 13:17:36;;;;;;;21.02;19.73;;;28.30;99.90;;;;;;6307665;22;20021;-91
2023/06/08 13:20:03;;;;;;;21.08;19.65;;;28.10;99.90;;;;;;6307438;22;20007;-91
2023/06/08 13:22:30;;;;;;;20.42;19.30;;;28.40;99.90;;;;;;6280474;22;20451;-92
2023/06/08 13:24:57;;;;;;;20.73;19.63;;;28.50;99.90;;;;;;6307301;22;20018;-91
2023/06/08 13:27:25;;;;;;;20.92;19.65;;;28.50;99.90;;;;;;6307089;22;20007;-91
2023/06/08 13:29:52;;;;;;;22.35;20.70;;;28.70;99.90;;;;;;6307524;22;20011;-90
2023/06/08 13:32:18;;;;;;;21.48;20.08;;;29.00;99.90;;;;;;6281653;22;20443;-92
2023/06/08 13:34:46;;;;;;;20.70;19.40;;;29.10;99.90;;;;;;6309899;22;20062;-92
2023/06/08 13:37:13;;;;;;;20.80;19.50;;;28.80;99.90;;;;;;6308887;22;20003;-91
2023/06/08 13:39:43;;;;;;;21.23;19.73;;;28.60;99.90;;;;;;6309491;22;20019;-91
2023/06/08 13:42:10;;;;;;;21.33;20.00;;;28.70;99.90;;;;;;6329022;22;19987;-90
2023/06/08 13:44:40;;;;;;;21.50;19.92;;;28.40;99.90;;;;;;6301351;22;20011;-89
2023/06/08 13:47:08;;;;;;;21.52;20.25;;;28.30;99.90;;;;;;6311692;22;20008;-91
2023/06/08 13:49:35;;;;;;;21.10;19.80;;;28.50;99.90;;;;;;6309462;22;20014;-89
2023/06/08 13:52:02;;;;;;;20.77;19.48;;;28.70;99.90;;;;;;6309165;22;20003;-91
2023/06/08 13:54:29;;;;;;;20.35;19.05;;;29.10;99.90;;;;;;6309420;22;20034;-89
2023/06/08 13:57:07;;;;;;;20.30;19.10;;;28.90;99.90;;;;;;6309304;22;20082;-93
2023/06/08 13:59:34;;;;;;;20.92;19.35;;;28.60;99.90;;;;;;6309208;22;20015;-91
2023/06/08 14:02:00;;;;;;;21.63;19.50;;;28.40;99.90;;;;;;6309505;22;20069;-89
2023/06/08 14:04:26;;;;;;;20.65;19.27;;;28.40;99.90;;;;;;6283465;22;20007;-89
2023/06/08 14:06:53;;;;;;;20.42;19.08;;;28.40;99.90;;;;;;6309304;22;20003;-89
2023/06/08 14:09:20;;;;;;;20.92;19.50;;;28.30;99.90;;;;;;6309070;22;20003;-91
2023/06/08 14:11:46;;;;;;;20.35;18.95;;;28.30;99.90;;;;;;6309036;22;20098;-89
2023/06/08 14:14:36;;;;;;;20.65;19.40;;;28.40;99.90;;;;;;6309046;22;20004;-93
2023/06/08 14:17:02;;;;;;;20.23;18.88;;;28.60;99.90;;;;;;6308916;22;20030;-91
2023/06/08 14:19:29;;;;;;;21.08;19.52;;;28.50;99.90;;;;;;6308677;22;20015;-89
2023/06/08 14:21:55;;;;;;;20.80;19.50;;;28.70;99.90;;;;;;6308933;22;20007;-90
2023/06/08 14:24:21;;;;;;;21.13;19.50;;;28.90;99.90;;;;;;6309037;22;20015;-91
2023/06/08 14:26:49;;;;;;;20.33;19.23;;;29.00;99.90;;;;;;6308906;22;20086;-91
2023/06/08 14:29:15;;;;;;;20.63;19.15;;;28.80;99.90;;;;;;6283152;22;20014;-91
2023/06/08 14:31:42;;;;;;;20.20;19.00;;;28.50;99.90;;;;;;6309220;22;20064;-91
2023/06/08 14:34:08;;;;;;;20.48;19.05;;;28.10;99.90;;;;;;6308729;22;20053;-91
2023/06/08 14:36:35;;;;;;;20.60;19.27;;;28.30;99.90;;;;;;6308387;22;20068;-90
2023/06/08 14:39:01;;;;;;;20.40;19.05;;;28.10;99.90;;;;;;6308454;22;20072;-91
2023/06/08 14:41:28;;;;;;;20.77;19.42;;;28.00;99.90;;;;;;6308453;22;20117;-93
2023/06/08 14:43:55;;;;;;;20.90;19.30;;;28.00;99.90;;;;;;6308633;22;20014;-90
2023/06/08 14:46:28;;;;;;;19.92;18.83;;;28.00;99.90;;;;;;6308127;22;20003;-93
2023/06/08 14:48:55;;;;;;;20.20;18.85;;;28.00;99.90;;;;;;6308847;22;20328;-91
2023/06/08 14:51:22;;;;;;;19.77;18.55;;;28.20;99.90;;;;;;6308539;22;20011;-89
2023/06/08 14:53:48;;;;;;;20.52;19.00;;;28.40;99.90;;;;;;6308495;22;20167;-91
2023/06/08 14:56:15;;;;;;;20.08;18.98;;;28.40;99.90;;;;;;6308330;22;20034;-91
2023/06/08 14:58:41;;;;;;;20.00;18.80;;;28.30;99.90;;;;;;6308299;22;20011;-90
2023/06/08 15:01:11;;;;;;;20.42;19.23;;;28.20;99.90;;;;;;6308492;22;20015;-90
2023/06/08 15:03:41;;;;;;;20.05;18.65;;;28.10;99.90;;;;;;6308766;22;20018;-90
2023/06/08 15:06:07;;;;;;;20.13;18.90;;;28.20;99.90;;;;;;6308659;22;19999;-91
2023/06/08 15:08:34;;;;;;;21.08;19.60;;;28.40;99.90;;;;;;6308528;22;20019;-91
2023/06/08 15:11:03;;;;;;;20.70;19.40;;;28.40;99.90;;;;;;6308597;22;20348;-91
2023/06/08 15:13:30;;;;;;;20.73;19.42;;;28.40;99.90;;;;;;6307960;22;20007;-89
2023/06/08 15:15:56;;;;;;;20.73;19.52;;;28.20;99.90;;;;;;6308055;22;20347;-91
2023/06/08 15:18:23;;;;;;;20.40;19.20;;;28.40;99.90;;;;;;6308430;22;20424;-92
2023/06/08 15:20:50;;;;;;;20.70;19.30;;;28.40;99.90;;;;;;6308007;22;20078;-90
2023/06/08 15:23:16;;;;;;;20.83;19.52;;;28.40;99.90;;;;;;6308028;22;20439;-90
2023/06/08 15:25:43;;;;;;;20.80;19.50;;;28.20;99.90;;;;;;6308602;22;20003;-92
2023/06/08 15:28:10;;;;;;;20.90;19.65;;;27.90;99.90;;;;;;6308194;22;20007;-90
2023/06/08 15:31:35;;;;;;;21.33;19.98;;;27.90;99.90;;;;;;6308367;22;20003;-94
2023/06/08 15:38:15;;;;;;;;;;;;;;;;;;;;;
2023/06/08 15:40:59;;;;;;;21.10;19.65;;;27.80;99.90;;;;;;6159838;23;20031;-92
2023/06/08 15:43:26;;;;;;;19.90;18.60;;;27.70;99.90;;;;;;6182006;23;19997;-93
2023/06/08 15:45:54;;;;;;;19.20;18.00;;;27.50;99.90;;;;;;6170502;23;20015;-93
2023/06/08 15:48:23;;;;;;;19.70;18.50;;;27.40;99.90;;;;;;6155652;23;20013;-91
2023/06/08 15:50:55;;;;;;;19.95;18.60;;;27.50;99.90;;;;;;6155674;23;20011;-91
2023/06/08 15:53:25;;;;;;;20.27;18.63;;;27.80;99.90;;;;;;6155344;23;20010;-92
2023/06/08 15:55:52;;;;;;;19.83;18.52;;;27.90;99.90;;;;;;6155530;23;20016;-93
2023/06/08 15:58:27;;;;;;;20.42;19.02;;;28.00;99.90;;;;;;6155184;23;20048;-92
2023/06/08 16:01:11;;;;;;;19.92;18.27;;;28.20;99.90;;;;;;6154678;23;20017;-94
2023/06/08 16:03:47;;;;;;;19.75;18.33;;;27.80;99.90;;;;;;6153742;23;20009;-91